createdAt,value
2022-12-29T00:01:14.822Z,91.80
2022-12-29T00:03:20.263Z,91.90
2022-12-29T00:05:27.954Z,91.40
2022-12-29T00:07:33.370Z,91.70
2022-12-29T00:09:38.883Z,91.90
2022-12-29T00:11:43.892Z,91.80
2022-12-29T00:14:02.225Z,91.80
2022-12-29T00:16:11.263Z,91.70
2022-12-29T00:18:16.215Z,92.10
2022-12-29T00:20:35.481Z,91.70
2022-12-29T00:22:55.461Z,91.60
2022-12-29T00:25:13.166Z,91.20
2022-12-29T00:27:30.555Z,91.20
2022-12-29T00:29:47.979Z,90.90
2022-12-29T00:32:05.795Z,90.70
2022-12-29T00:34:27.535Z,90.80
2022-12-29T00:36:36.650Z,91.20
2022-12-29T00:39:05.934Z,90.90
2022-12-29T00:41:23.800Z,90.40
2022-12-29T00:43:42.032Z,89.60
2022-12-29T00:45:47.667Z,89.80
2022-12-29T00:47:52.613Z,89.40
2022-12-29T00:49:54.944Z,89.50
2022-12-29T00:52:04.147Z,89.40
2022-12-29T00:54:11.983Z,88.60
2022-12-29T00:56:17.623Z,88.80
2022-12-29T00:58:23.142Z,88.50
2022-12-29T01:00:28.468Z,87.80
2022-12-29T01:02:34.784Z,86.30
2022-12-29T01:04:41.614Z,87.30
2022-12-29T01:06:47.387Z,87.30
2022-12-29T01:09:19.285Z,86.80
2022-12-29T01:11:24.221Z,86.80
2022-12-29T01:13:29.203Z,86.50
2022-12-29T01:15:34.136Z,86.70
2022-12-29T01:17:39.500Z,86.10
2022-12-29T01:19:44.463Z,86.10
2022-12-29T01:21:50.026Z,86.40
2022-12-29T01:23:55.108Z,85.70
2022-12-29T01:26:00.408Z,85.90
2022-12-29T01:28:09.537Z,85.60
2022-12-29T01:30:15.990Z,85.90
2022-12-29T01:32:23.420Z,86.10
2022-12-29T01:34:28.385Z,86.10
2022-12-29T01:36:33.754Z,86.80
2022-12-29T01:38:40.915Z,88.10
2022-12-29T01:40:49.641Z,88.20
2022-12-29T01:42:55.335Z,89.20
2022-12-29T01:45:05.630Z,89.50
2022-12-29T01:47:11.807Z,89.80
2022-12-29T01:49:23.055Z,89.70
2022-12-29T01:51:30.265Z,89.80
2022-12-29T01:53:37.847Z,90.40
2022-12-29T01:55:48.185Z,91.00
2022-12-29T01:57:56.778Z,90.50
2022-12-29T02:00:08.804Z,90.70
2022-12-29T02:02:20.540Z,91.50
2022-12-29T02:04:27.678Z,91.60
2022-12-29T02:06:39.087Z,91.80
2022-12-29T02:08:44.668Z,92.50
2022-12-29T02:10:50.624Z,93.00
2022-12-29T02:12:56.459Z,93.20
2022-12-29T02:15:07.498Z,93.40
2022-12-29T02:17:21.021Z,93.30
2022-12-29T02:20:15.344Z,93.40
2022-12-29T02:22:31.346Z,93.50
2022-12-29T02:25:18.659Z,92.90
2022-12-29T02:27:55.005Z,93.50
2022-12-29T02:30:19.946Z,93.40
2022-12-29T02:32:36.964Z,93.50
2022-12-29T02:34:51.646Z,93.60
2022-12-29T02:37:06.717Z,93.60
2022-12-29T02:39:25.233Z,93.40
2022-12-29T02:41:36.262Z,93.70
2022-12-29T02:43:48.677Z,93.00
2022-12-29T02:45:59.822Z,92.30
2022-12-29T02:48:14.612Z,92.70
2022-12-29T02:50:27.263Z,92.90
2022-12-29T02:52:40.436Z,92.60
2022-12-29T02:54:43.164Z,92.80
2022-12-29T02:56:49.289Z,93.20
2022-12-29T02:58:54.538Z,93.10
2022-12-29T03:01:19.128Z,92.80
2022-12-29T03:03:41.136Z,92.70
2022-12-29T03:06:20.376Z,92.30
2022-12-29T03:08:35.884Z,92.50
2022-12-29T03:10:52.068Z,92.10
2022-12-29T03:13:18.616Z,92.20
2022-12-29T03:15:43.485Z,92.30
2022-12-29T03:17:59.119Z,91.90
2022-12-29T03:20:13.287Z,92.10
2022-12-29T03:22:28.293Z,92.40
2022-12-29T03:24:49.208Z,91.90
2022-12-29T03:27:01.590Z,91.50
2022-12-29T03:29:12.452Z,91.20
2022-12-29T03:31:18.088Z,91.30
2022-12-29T03:33:28.999Z,91.40
2022-12-29T03:35:43.089Z,91.00
2022-12-29T03:37:59.756Z,90.90
2022-12-29T03:40:05.332Z,90.90
2022-12-29T03:42:17.310Z,90.70
2022-12-29T03:44:23.450Z,90.40
2022-12-29T03:46:29.123Z,90.20
2022-12-29T03:48:34.167Z,90.30
2022-12-29T03:50:42.809Z,90.40
2022-12-29T03:52:47.902Z,90.30
2022-12-29T03:54:52.878Z,89.40
2022-12-29T03:56:57.937Z,89.70
2022-12-29T03:59:15.938Z,90.10
2022-12-29T04:01:21.004Z,90.00
2022-12-29T04:03:26.386Z,90.00
2022-12-29T04:05:32.167Z,90.20
2022-12-29T04:07:41.033Z,89.90
2022-12-29T04:09:46.238Z,89.70
2022-12-29T04:11:57.227Z,89.60
2022-12-29T04:14:02.963Z,89.80
2022-12-29T04:16:10.388Z,89.50
2022-12-29T04:18:17.050Z,89.40
2022-12-29T04:20:36.855Z,89.30
2022-12-29T04:22:47.903Z,89.50
2022-12-29T04:24:53.334Z,89.80
2022-12-29T04:26:58.269Z,89.40
2022-12-29T04:29:26.734Z,89.10
2022-12-29T04:31:54.514Z,88.80
2022-12-29T04:34:02.953Z,88.20
2022-12-29T04:36:09.621Z,88.50
2022-12-29T04:38:19.960Z,88.70
2022-12-29T04:40:26.925Z,88.30
2022-12-29T04:42:32.303Z,88.50
2022-12-29T04:44:44.738Z,88.80
2022-12-29T04:47:10.289Z,88.60
2022-12-29T04:49:33.751Z,88.30
2022-12-29T04:51:48.546Z,88.50
2022-12-29T04:53:57.675Z,88.20
2022-12-29T04:56:04.135Z,87.90
2022-12-29T04:58:09.496Z,87.60
2022-12-29T05:00:17.424Z,88.00
2022-12-29T05:02:24.409Z,88.00
2022-12-29T05:04:30.139Z,88.30
2022-12-29T05:06:35.842Z,88.00
2022-12-29T05:08:41.890Z,87.40
2022-12-29T05:10:51.163Z,87.80
2022-12-29T05:12:56.241Z,87.20
2022-12-29T05:15:03.740Z,87.50
2022-12-29T05:17:09.774Z,87.30
2022-12-29T05:19:15.097Z,87.00
2022-12-29T05:21:20.024Z,87.40
2022-12-29T05:23:25.356Z,87.10
2022-12-29T05:25:35.633Z,87.30
2022-12-29T05:28:11.877Z,87.30
2022-12-29T05:30:37.414Z,87.00
2022-12-29T05:32:42.519Z,86.60
2022-12-29T05:34:47.588Z,86.90
2022-12-29T05:36:53.199Z,86.60
2022-12-29T05:38:58.179Z,86.80
2022-12-29T05:41:05.048Z,86.90
2022-12-29T05:43:38.022Z,87.60
2022-12-29T05:45:53.445Z,87.10
2022-12-29T05:48:16.896Z,87.00
2022-12-29T05:50:31.395Z,86.50
2022-12-29T05:52:50.499Z,86.70
2022-12-29T05:54:55.986Z,86.90
2022-12-29T05:57:03.919Z,86.70
2022-12-29T05:59:12.558Z,86.40
2022-12-29T06:01:18.464Z,86.40
2022-12-29T06:03:23.880Z,86.10
2022-12-29T06:05:30.180Z,85.80
2022-12-29T06:07:36.633Z,86.20
2022-12-29T06:09:43.006Z,85.90
2022-12-29T06:11:49.524Z,86.40
2022-12-29T06:13:54.815Z,86.30
2022-12-29T06:16:04.398Z,86.10
2022-12-29T06:18:13.760Z,85.20
2022-12-29T06:20:24.573Z,85.40
2022-12-29T06:22:31.088Z,85.30
2022-12-29T06:24:37.647Z,85.40
2022-12-29T06:26:43.041Z,85.20
2022-12-29T06:28:48.355Z,85.40
2022-12-29T06:30:55.170Z,85.70
2022-12-29T06:33:03.213Z,85.70
2022-12-29T06:35:10.058Z,85.90
2022-12-29T06:37:20.231Z,86.10
2022-12-29T06:39:25.159Z,86.10
2022-12-29T06:41:44.346Z,86.20
2022-12-29T06:44:01.688Z,86.80
2022-12-29T06:46:28.047Z,86.80
2022-12-29T06:48:35.577Z,86.50
2022-12-29T06:50:40.599Z,86.70
2022-12-29T06:52:45.547Z,86.30
2022-12-29T06:54:50.568Z,86.30
2022-12-29T06:56:55.548Z,86.80
2022-12-29T06:59:01.129Z,87.00
2022-12-29T07:01:06.671Z,86.70
2022-12-29T07:03:12.631Z,86.40
2022-12-29T07:05:20.773Z,86.70
2022-12-29T07:07:25.902Z,86.20
2022-12-29T07:09:30.822Z,85.60
2022-12-29T07:11:35.928Z,85.90
2022-12-29T07:13:41.814Z,85.90
2022-12-29T07:15:46.754Z,85.30
2022-12-29T07:17:53.168Z,86.10
2022-12-29T07:19:58.651Z,85.80
2022-12-29T07:22:06.588Z,86.10
2022-12-29T07:24:12.718Z,85.90
2022-12-29T07:26:19.625Z,86.20
2022-12-29T07:28:25.167Z,85.50
2022-12-29T07:30:30.152Z,85.00
2022-12-29T07:32:37.164Z,85.40
2022-12-29T07:34:43.319Z,85.80
2022-12-29T07:36:48.587Z,85.60
2022-12-29T07:38:57.311Z,85.70
2022-12-29T07:41:02.654Z,86.00
2022-12-29T07:43:08.181Z,86.60
2022-12-29T07:45:19.706Z,87.40
2022-12-29T07:47:41.502Z,88.80
2022-12-29T07:49:46.723Z,88.30
2022-12-29T07:51:51.666Z,89.80
2022-12-29T07:54:01.380Z,90.00
2022-12-29T07:56:07.145Z,89.90
2022-12-29T07:58:12.115Z,90.10
2022-12-29T08:00:19.695Z,90.30
2022-12-29T08:02:24.688Z,90.40
2022-12-29T08:04:29.647Z,89.80
2022-12-29T08:06:34.583Z,89.70
2022-12-29T08:08:39.611Z,88.80
2022-12-29T08:10:47.973Z,88.50
2022-12-29T08:12:52.981Z,88.20
2022-12-29T08:14:58.071Z,88.40
2022-12-29T08:17:03.049Z,87.70
2022-12-29T08:19:08.656Z,87.90
2022-12-29T08:21:13.667Z,87.00
2022-12-29T08:23:18.602Z,86.50
2022-12-29T08:25:23.494Z,87.00
2022-12-29T08:27:32.407Z,86.20
2022-12-29T08:29:37.410Z,86.00
2022-12-29T08:31:42.404Z,86.00
2022-12-29T08:33:47.407Z,86.30
2022-12-29T08:35:52.333Z,86.40
2022-12-29T08:37:57.272Z,86.60
2022-12-29T08:40:04.754Z,87.00
2022-12-29T08:42:09.992Z,87.10
2022-12-29T08:44:17.574Z,87.00
2022-12-29T08:46:22.584Z,87.10
2022-12-29T08:48:27.588Z,87.00
2022-12-29T08:50:32.507Z,86.70
2022-12-29T08:52:37.478Z,86.20
2022-12-29T08:54:42.427Z,86.80
2022-12-29T08:56:47.368Z,86.70
2022-12-29T08:58:54.392Z,85.50
2022-12-29T09:01:03.388Z,85.90
2022-12-29T09:03:08.434Z,85.30
2022-12-29T09:05:13.788Z,85.60
2022-12-29T09:07:18.900Z,85.70
2022-12-29T09:09:24.047Z,86.40
2022-12-29T09:11:29.738Z,86.40
2022-12-29T09:13:34.648Z,86.50
2022-12-29T09:15:40.342Z,85.90
2022-12-29T09:17:48.172Z,86.10
2022-12-29T09:19:53.118Z,85.90
2022-12-29T09:21:58.223Z,86.10
2022-12-29T09:24:03.306Z,86.00
2022-12-29T09:26:08.942Z,86.30
2022-12-29T09:28:14.129Z,85.70
2022-12-29T09:30:19.219Z,85.60
2022-12-29T09:32:24.968Z,85.00
2022-12-29T09:34:34.184Z,85.10
2022-12-29T09:36:39.195Z,84.20
2022-12-29T09:38:44.132Z,84.80
2022-12-29T09:40:55.897Z,84.40
2022-12-29T09:43:46.160Z,84.40
2022-12-29T09:46:00.812Z,84.20
2022-12-29T09:48:11.210Z,84.30
2022-12-29T09:50:28.165Z,83.50
2022-12-29T09:52:38.145Z,83.70
2022-12-29T09:54:59.777Z,83.20
2022-12-29T09:57:13.614Z,83.70
2022-12-29T09:59:23.056Z,83.80
2022-12-29T10:01:36.076Z,83.40
2022-12-29T10:03:50.967Z,83.40
2022-12-29T10:06:10.181Z,82.90
2022-12-29T10:08:35.439Z,83.60
2022-12-29T10:10:50.332Z,83.00
2022-12-29T10:13:23.158Z,83.30
2022-12-29T10:15:48.384Z,84.30
2022-12-29T10:18:07.829Z,84.60
2022-12-29T10:20:31.214Z,86.10
2022-12-29T10:23:10.086Z,86.80
2022-12-29T10:25:22.262Z,86.40
2022-12-29T10:27:28.345Z,87.00
2022-12-29T10:29:40.407Z,86.70
2022-12-29T10:31:50.503Z,86.60
2022-12-29T10:34:04.659Z,86.40
2022-12-29T10:36:20.401Z,85.40
2022-12-29T10:38:38.199Z,85.20
2022-12-29T10:40:51.370Z,85.40
2022-12-29T10:42:58.491Z,85.10
2022-12-29T10:45:04.168Z,84.50
2022-12-29T10:47:17.447Z,82.40
2022-12-29T10:49:23.325Z,83.10
2022-12-29T10:51:31.609Z,82.40
2022-12-29T10:53:47.441Z,83.20
2022-12-29T10:55:54.050Z,82.20
2022-12-29T10:58:05.709Z,83.00
2022-12-29T11:00:17.812Z,83.20
2022-12-29T11:02:51.838Z,82.70
2022-12-29T11:05:05.821Z,82.40
2022-12-29T11:07:16.055Z,82.70
2022-12-29T11:09:41.919Z,83.70
2022-12-29T11:11:48.181Z,84.00
2022-12-29T11:13:55.252Z,83.90
2022-12-29T11:16:01.007Z,83.50
2022-12-29T11:18:06.204Z,84.30
2022-12-29T11:20:35.920Z,84.00
2022-12-29T11:22:48.635Z,84.80
2022-12-29T11:24:58.388Z,84.10
2022-12-29T11:27:18.932Z,85.90
2022-12-29T11:29:32.900Z,86.50
2022-12-29T11:31:45.580Z,85.50
2022-12-29T11:33:50.528Z,85.20
2022-12-29T11:36:02.316Z,84.90
2022-12-29T11:38:08.979Z,85.80
2022-12-29T11:40:22.862Z,85.50
2022-12-29T11:42:38.770Z,85.90
2022-12-29T11:44:49.736Z,85.20
2022-12-29T11:46:56.754Z,85.80
2022-12-29T11:49:02.725Z,84.30
2022-12-29T11:51:08.399Z,83.90
2022-12-29T11:53:24.098Z,84.00
2022-12-29T11:55:33.046Z,84.20
2022-12-29T11:57:39.497Z,84.50
2022-12-29T11:59:47.210Z,84.50
2022-12-29T12:01:52.520Z,84.60
2022-12-29T12:04:05.336Z,84.90
2022-12-29T12:06:17.797Z,85.00
2022-12-29T12:08:35.140Z,83.30
2022-12-29T12:10:48.158Z,83.90
2022-12-29T12:13:00.110Z,83.30
2022-12-29T12:15:08.028Z,82.30
2022-12-29T12:17:38.254Z,83.30
2022-12-29T12:19:51.285Z,83.80
2022-12-29T12:22:04.099Z,83.30
2022-12-29T12:24:39.254Z,82.30
2022-12-29T12:26:59.525Z,82.50
2022-12-29T12:29:12.551Z,82.50
2022-12-29T12:31:30.012Z,82.80
2022-12-29T12:33:40.880Z,83.20
2022-12-29T12:35:53.965Z,82.40
2022-12-29T12:38:26.704Z,82.90
2022-12-29T12:40:56.819Z,83.00
2022-12-29T12:43:27.803Z,82.40
2022-12-29T12:45:49.114Z,82.70
2022-12-29T12:48:08.839Z,82.90
2022-12-29T12:50:28.640Z,82.40
2022-12-29T12:52:46.506Z,83.10
2022-12-29T12:55:17.996Z,82.50
2022-12-29T12:57:36.047Z,83.00
2022-12-29T12:59:55.969Z,82.80
2022-12-29T13:02:13.855Z,81.80
2022-12-29T13:05:04.420Z,82.20
2022-12-29T13:07:22.484Z,81.60
2022-12-29T13:09:44.978Z,82.00
2022-12-29T13:12:07.860Z,81.80
2022-12-29T13:14:29.519Z,82.20
2022-12-29T13:16:49.505Z,82.30
2022-12-29T13:19:03.128Z,81.40
2022-12-29T13:21:16.482Z,82.00
2022-12-29T13:23:32.391Z,82.10
2022-12-29T13:27:57.982Z,82.30
2022-12-29T13:30:08.435Z,81.60
2022-12-29T13:32:34.599Z,82.70
2022-12-29T13:34:46.696Z,82.50
2022-12-29T13:36:58.545Z,82.10
2022-12-29T13:39:17.420Z,82.40
2022-12-29T13:41:33.531Z,82.60
2022-12-29T13:43:43.569Z,82.70
2022-12-29T13:45:53.458Z,82.30
2022-12-29T13:48:10.619Z,82.20
2022-12-29T13:50:22.019Z,82.00
2022-12-29T13:52:39.731Z,81.90
2022-12-29T13:54:59.509Z,82.40
2022-12-29T13:57:15.614Z,82.50
2022-12-29T13:59:30.412Z,83.20
2022-12-29T14:01:43.777Z,83.90
2022-12-29T14:03:54.334Z,84.10
2022-12-29T14:06:17.709Z,84.10
2022-12-29T14:08:22.884Z,84.30
2022-12-29T14:10:36.250Z,84.30
2022-12-29T14:12:47.378Z,84.60
2022-12-29T14:14:52.962Z,84.60
2022-12-29T14:16:58.393Z,84.40
2022-12-29T14:19:19.691Z,84.70
2022-12-29T14:21:30.770Z,85.00
2022-12-29T14:23:44.202Z,85.20
2022-12-29T14:26:03.347Z,85.20
2022-12-29T14:28:20.346Z,84.80
2022-12-29T14:31:02.664Z,85.10
2022-12-29T14:33:17.329Z,85.00
2022-12-29T14:35:50.603Z,85.70
2022-12-29T14:38:11.264Z,85.40
2022-12-29T14:40:23.206Z,85.30
2022-12-29T14:42:28.471Z,85.30
2022-12-29T14:44:37.120Z,85.70
2022-12-29T14:47:00.261Z,85.50
2022-12-29T14:49:06.491Z,85.60
2022-12-29T14:51:37.710Z,86.00
2022-12-29T14:53:50.036Z,85.90
2022-12-29T14:56:00.864Z,85.60
2022-12-29T14:58:13.712Z,85.90
2022-12-29T15:00:27.323Z,86.20
2022-12-29T15:02:48.624Z,86.30
2022-12-29T15:04:55.780Z,86.30
2022-12-29T15:07:05.110Z,86.20
2022-12-29T15:09:26.969Z,86.20
2022-12-29T15:11:51.183Z,86.20
2022-12-29T15:13:56.175Z,85.90
2022-12-29T15:16:01.226Z,86.50
2022-12-29T15:18:23.950Z,86.70
2022-12-29T15:20:31.411Z,86.50
2022-12-29T15:22:39.093Z,86.40
2022-12-29T15:24:46.228Z,86.70
2022-12-29T15:26:55.591Z,86.80
2022-12-29T15:29:01.086Z,86.80
2022-12-29T15:31:09.527Z,86.70
2022-12-29T15:33:22.843Z,86.70
2022-12-29T15:35:34.612Z,87.10
2022-12-29T15:37:42.368Z,87.30
2022-12-29T15:39:47.281Z,87.10
2022-12-29T15:42:05.523Z,86.80
2022-12-29T15:44:20.989Z,86.60
2022-12-29T15:46:26.220Z,86.40
2022-12-29T15:48:32.222Z,86.10
2022-12-29T15:50:40.361Z,86.00
2022-12-29T15:52:48.019Z,85.90
2022-12-29T15:54:56.231Z,86.00
2022-12-29T15:57:01.695Z,85.90
2022-12-29T15:59:06.643Z,86.00
2022-12-29T16:01:22.879Z,85.70
2022-12-29T16:03:31.058Z,85.60
2022-12-29T16:05:37.961Z,85.60
2022-12-29T16:07:54.901Z,86.10
2022-12-29T16:10:04.905Z,86.00
2022-12-29T16:12:20.768Z,86.50
2022-12-29T16:14:33.460Z,86.40
2022-12-29T16:16:43.260Z,86.50
2022-12-29T16:18:53.515Z,86.90
2022-12-29T16:21:02.284Z,87.10
2022-12-29T16:23:07.304Z,86.90
2022-12-29T16:25:25.739Z,87.20
2022-12-29T16:27:38.757Z,87.20
2022-12-29T16:29:44.038Z,86.90
2022-12-29T16:32:01.723Z,86.80
2022-12-29T16:34:27.377Z,86.50
2022-12-29T16:36:36.104Z,86.30
2022-12-29T16:38:42.985Z,86.50
2022-12-29T16:40:58.599Z,86.80
2022-12-29T16:43:05.365Z,86.60
2022-12-29T16:46:19.623Z,86.20
2022-12-29T16:48:28.727Z,86.00
2022-12-29T16:50:34.019Z,86.10
2022-12-29T16:52:39.216Z,86.00
2022-12-29T16:54:45.014Z,85.70
2022-12-29T16:56:53.266Z,85.90
2022-12-29T16:59:07.984Z,86.70
2022-12-29T17:01:15.767Z,86.90
2022-12-29T17:03:20.859Z,87.00
2022-12-29T17:05:26.058Z,86.70
2022-12-29T17:07:32.444Z,87.10
2022-12-29T17:09:37.400Z,86.80
2022-12-29T17:12:00.282Z,86.80
2022-12-29T17:14:09.103Z,86.90
2022-12-29T17:16:15.151Z,86.80
2022-12-29T17:18:20.219Z,87.00
2022-12-29T17:20:27.627Z,87.10
2022-12-29T17:22:33.841Z,87.60
2022-12-29T17:24:39.868Z,87.30
2022-12-29T17:26:44.972Z,87.90
2022-12-29T17:28:50.603Z,87.20
2022-12-29T17:31:03.669Z,87.20
2022-12-29T17:33:13.134Z,87.10
2022-12-29T17:35:19.061Z,87.30
2022-12-29T17:37:38.515Z,87.70
2022-12-29T17:39:43.523Z,87.20
2022-12-29T17:41:49.227Z,87.40
2022-12-29T17:43:54.230Z,87.50
2022-12-29T17:46:02.180Z,87.70
2022-12-29T17:48:15.141Z,87.80
2022-12-29T17:50:23.812Z,87.40
2022-12-29T17:52:28.730Z,87.30
2022-12-29T17:54:34.276Z,86.90
2022-12-29T17:56:39.855Z,86.70
2022-12-29T17:58:46.088Z,87.10
2022-12-29T18:00:53.801Z,87.30
2022-12-29T18:03:02.186Z,87.30
2022-12-29T18:05:18.298Z,87.20
2022-12-29T18:07:24.104Z,87.10
2022-12-29T18:09:28.975Z,87.10
2022-12-29T18:11:33.933Z,87.10
2022-12-29T18:13:46.005Z,86.80
2022-12-29T18:15:51.662Z,86.90
2022-12-29T18:18:03.779Z,87.00
2022-12-29T18:20:09.614Z,86.70
2022-12-29T18:22:14.565Z,87.10
2022-12-29T18:24:19.436Z,86.90
2022-12-29T18:26:31.738Z,86.20
2022-12-29T18:28:37.540Z,86.70
2022-12-29T18:30:42.558Z,87.30
2022-12-29T18:32:47.544Z,87.50
2022-12-29T18:34:55.064Z,87.30
2022-12-29T18:37:01.803Z,87.40
2022-12-29T18:39:07.421Z,87.30
2022-12-29T18:41:21.163Z,87.20
2022-12-29T18:43:26.443Z,87.60
2022-12-29T18:45:34.142Z,87.50
2022-12-29T18:47:39.053Z,87.60
2022-12-29T18:49:43.951Z,87.70
2022-12-29T18:51:51.545Z,87.80
2022-12-29T18:56:01.865Z,88.00
2022-12-29T18:58:06.798Z,87.90
2022-12-29T19:00:14.663Z,88.40
2022-12-29T19:02:20.214Z,88.20
2022-12-29T19:04:25.156Z,87.90
2022-12-29T19:06:30.319Z,87.60
2022-12-29T19:08:38.254Z,86.90
2022-12-29T19:10:45.231Z,86.80
2022-12-29T19:12:51.306Z,85.90
2022-12-29T19:14:56.211Z,86.30
2022-12-29T19:17:01.541Z,85.90
2022-12-29T19:19:10.021Z,86.10
2022-12-29T19:21:15.226Z,86.70
2022-12-29T19:23:23.631Z,86.70
2022-12-29T19:25:32.234Z,86.30
2022-12-29T19:27:37.168Z,86.40
2022-12-29T19:29:42.075Z,86.60
2022-12-29T19:31:47.411Z,86.70
2022-12-29T19:33:52.709Z,86.60
2022-12-29T19:36:02.589Z,86.60
2022-12-29T19:38:07.928Z,87.10
2022-12-29T19:40:19.051Z,86.80
2022-12-29T19:42:26.829Z,86.50
2022-12-29T19:44:32.246Z,86.80
2022-12-29T19:46:37.993Z,86.40
2022-12-29T19:48:43.028Z,86.40
2022-12-29T19:50:49.894Z,86.70
2022-12-29T19:53:04.647Z,86.50
2022-12-29T19:55:11.783Z,86.60
2022-12-29T19:57:17.030Z,86.40
2022-12-29T19:59:24.575Z,86.60
2022-12-29T20:01:30.253Z,86.30
2022-12-29T20:03:36.324Z,86.20
2022-12-29T20:05:42.361Z,86.10
2022-12-29T20:07:48.049Z,86.00
2022-12-29T20:09:53.235Z,86.00
2022-12-29T20:11:58.587Z,86.30
2022-12-29T20:14:03.508Z,86.20
2022-12-29T20:16:15.857Z,86.10
2022-12-29T20:18:26.832Z,86.20
2022-12-29T20:20:36.359Z,86.30
2022-12-29T20:22:41.296Z,85.70
2022-12-29T20:24:50.199Z,85.80
2022-12-29T20:26:55.838Z,85.50
2022-12-29T20:29:01.353Z,85.90
2022-12-29T20:31:16.694Z,86.20
2022-12-29T20:33:21.917Z,85.60
2022-12-29T20:35:27.212Z,85.90
2022-12-29T20:37:32.532Z,86.10
2022-12-29T20:39:38.805Z,85.80
2022-12-29T20:41:43.829Z,85.70
2022-12-29T20:43:48.823Z,85.90
2022-12-29T20:45:53.794Z,86.00
2022-12-29T20:48:01.505Z,85.90
2022-12-29T20:50:07.631Z,85.90
2022-12-29T20:52:13.290Z,85.60
2022-12-29T20:54:18.642Z,85.00
2022-12-29T20:56:27.600Z,85.20
2022-12-29T20:58:35.400Z,85.80
2022-12-29T21:00:49.233Z,85.50
2022-12-29T21:02:55.987Z,85.70
2022-12-29T21:07:29.893Z,85.50
2022-12-29T21:09:35.149Z,84.70
2022-12-29T21:11:42.948Z,84.50
2022-12-29T21:13:48.383Z,84.70
2022-12-29T21:16:00.124Z,84.80
2022-12-29T21:18:05.425Z,84.70
2022-12-29T21:20:19.834Z,85.10
2022-12-29T21:22:25.940Z,85.40
2022-12-29T21:24:31.105Z,85.70
2022-12-29T21:26:37.168Z,85.90
2022-12-29T21:28:43.602Z,86.20
2022-12-29T21:30:49.152Z,85.70
2022-12-29T21:32:55.066Z,86.10
2022-12-29T21:35:00.109Z,86.20
2022-12-29T21:37:08.198Z,86.30
2022-12-29T21:39:13.983Z,86.50
2022-12-29T21:41:20.630Z,86.60
2022-12-29T21:43:25.536Z,86.80
2022-12-29T21:45:30.279Z,86.50
2022-12-29T21:48:02.725Z,86.60
2022-12-29T21:50:09.451Z,86.90
2022-12-29T21:52:17.034Z,86.90
2022-12-29T21:54:38.509Z,86.60
2022-12-29T21:56:46.122Z,86.40
2022-12-29T21:59:06.334Z,86.80
2022-12-29T22:01:32.773Z,86.50
2022-12-29T22:03:55.093Z,85.90
2022-12-29T22:06:12.561Z,86.00
2022-12-29T22:08:33.349Z,85.90
2022-12-29T22:10:55.836Z,85.90
2022-12-29T22:13:03.929Z,85.90
2022-12-29T22:15:10.866Z,86.20
2022-12-29T22:17:19.321Z,85.80
2022-12-29T22:19:24.974Z,85.60
2022-12-29T22:21:30.090Z,85.00
2022-12-29T22:23:39.031Z,84.40
2022-12-29T22:25:44.973Z,84.70
2022-12-29T22:27:54.281Z,83.80
2022-12-29T22:30:03.868Z,83.90
2022-12-29T22:32:08.919Z,84.30
2022-12-29T22:34:14.760Z,84.50
2022-12-29T22:36:19.983Z,84.10
2022-12-29T22:38:25.158Z,84.30
2022-12-29T22:40:33.035Z,84.30
2022-12-29T22:42:38.687Z,84.50
2022-12-29T22:44:43.937Z,84.70
2022-12-29T22:46:49.618Z,84.30
2022-12-29T22:48:54.781Z,84.80
2022-12-29T22:50:59.750Z,84.90
2022-12-29T22:53:05.003Z,84.10
2022-12-29T22:55:11.644Z,84.00
2022-12-29T22:57:20.838Z,84.10
2022-12-29T22:59:25.873Z,83.60
2022-12-29T23:01:30.957Z,84.10
2022-12-29T23:03:36.106Z,83.50
2022-12-29T23:05:41.063Z,83.70
2022-12-29T23:07:46.001Z,82.80
2022-12-29T23:09:51.343Z,83.60
2022-12-29T23:11:56.264Z,83.90
2022-12-29T23:14:03.844Z,84.20
2022-12-29T23:16:09.258Z,84.20
2022-12-29T23:18:14.269Z,84.40
2022-12-29T23:20:19.343Z,84.40
2022-12-29T23:22:26.020Z,84.40
2022-12-29T23:24:31.010Z,84.40
2022-12-29T23:26:41.463Z,84.00
2022-12-29T23:28:46.413Z,84.60
2022-12-29T23:30:54.278Z,85.10
2022-12-29T23:32:59.217Z,85.30
2022-12-29T23:35:04.183Z,85.50
2022-12-29T23:37:09.129Z,85.40
2022-12-29T23:39:23.498Z,85.50
2022-12-29T23:41:29.313Z,85.80
2022-12-29T23:43:35.573Z,85.80
2022-12-29T23:45:44.754Z,85.90
2022-12-29T23:47:56.889Z,85.80
2022-12-29T23:50:03.899Z,86.20
2022-12-29T23:52:09.021Z,86.10
2022-12-29T23:54:14.354Z,86.20
2022-12-29T23:56:22.418Z,86.50
2022-12-29T23:58:27.917Z,86.20
